Time;durP1;ratioP1;P1;durP2;ratioP2;P2;SDS_P1;SDS_P2;PMS_P1;PMS_P2;Temp;Humidity;BMP_temperature;BMP_pressure;BME280_temperature;BME280_humidity;BME280_pressure;Samples;Min_cycle;Max_cycle;Signal;HPM_P1;HPM_P2
2023/05/23 00:02:21;;;;;;;11.20;7.47;;;14.90;99.90;;;;;;5096920;28;20171;-50
2023/05/23 00:04:48;;;;;;;8.87;7.47;;;14.80;99.90;;;;;;5096975;28;20178;-50
2023/05/23 00:07:15;;;;;;;9.50;8.17;;;14.80;99.90;;;;;;5097072;28;20288;-50
2023/05/23 00:09:40;;;;;;;10.43;7.67;;;14.70;99.90;;;;;;5096843;28;20660;-50
2023/05/23 00:12:06;;;;;;;10.23;7.83;;;14.70;99.90;;;;;;5096743;28;20237;-51
2023/05/23 00:14:32;;;;;;;10.73;7.73;;;14.60;99.90;;;;;;5096730;28;20663;-50
2023/05/23 00:16:59;;;;;;;10.63;7.80;;;14.60;99.90;;;;;;5096677;28;20643;-51
2023/05/23 00:19:24;;;;;;;11.10;8.00;;;14.60;99.90;;;;;;5096579;28;20209;-51
2023/05/23 00:21:52;;;;;;;12.53;8.43;;;14.50;99.90;;;;;;5096930;28;20171;-52
2023/05/23 00:24:19;;;;;;;12.30;8.60;;;14.50;99.90;;;;;;5096451;28;20285;-52
2023/05/23 00:26:45;;;;;;;9.93;7.97;;;14.50;99.90;;;;;;5096826;28;20186;-50
2023/05/23 00:29:17;;;;;;;10.30;8.40;;;14.40;99.90;;;;;;5096838;28;20599;-52
2023/05/23 00:31:46;;;;;;;9.63;8.00;;;14.40;99.90;;;;;;5096745;28;20247;-51
2023/05/23 00:34:18;;;;;;;11.83;9.27;;;14.40;99.90;;;;;;5096583;28;20211;-53
2023/05/23 00:36:46;;;;;;;11.13;8.53;;;14.40;99.90;;;;;;5096431;28;20158;-51
2023/05/23 00:39:18;;;;;;;12.63;9.90;;;14.40;99.90;;;;;;5096117;28;20198;-50
2023/05/23 00:41:48;;;;;;;12.70;9.00;;;14.40;99.90;;;;;;5096538;28;20208;-52
2023/05/23 00:44:14;;;;;;;12.23;9.57;;;14.40;99.90;;;;;;5096115;28;20202;-50
2023/05/23 00:46:42;;;;;;;12.90;9.70;;;14.40;99.90;;;;;;5096213;28;20647;-51
2023/05/23 00:49:08;;;;;;;13.33;9.90;;;14.50;99.90;;;;;;5095100;28;20270;-52
2023/05/23 00:51:35;;;;;;;17.40;10.30;;;14.50;99.90;;;;;;5095780;28;20195;-52
2023/05/23 00:54:02;;;;;;;15.13;10.37;;;14.50;99.90;;;;;;5096209;28;20608;-51
2023/05/23 00:56:28;;;;;;;14.47;10.73;;;14.60;99.90;;;;;;5095951;28;20175;-51
2023/05/23 00:58:54;;;;;;;14.93;12.20;;;14.60;99.90;;;;;;5095963;28;20720;-52
2023/05/23 01:01:20;;;;;;;17.93;12.07;;;14.60;99.90;;;;;;5096163;28;20191;-52
2023/05/23 01:03:47;;;;;;;14.90;11.17;;;14.70;99.90;;;;;;5095774;28;20207;-52
2023/05/23 01:06:13;;;;;;;15.20;11.27;;;14.70;99.90;;;;;;5095772;28;20190;-52
2023/05/23 01:08:41;;;;;;;14.90;10.77;;;14.70;99.90;;;;;;5094471;28;20273;-51
2023/05/23 01:11:21;;;;;;;14.07;11.37;;;14.70;99.90;;;;;;5095817;28;20656;-51
2023/05/23 01:14:03;;;;;;;10.63;8.90;;;14.70;99.90;;;;;;5095583;28;20248;-52
2023/05/23 01:17:07;;;;;;;8.90;7.33;;;14.80;99.90;;;;;;5096020;28;20187;-53
2023/05/23 01:19:57;;;;;;;8.10;6.53;;;14.80;99.90;;;;;;5072511;28;20195;-51
2023/05/23 01:23:00;;;;;;;9.60;6.60;;;14.80;99.90;;;;;;5096247;28;20220;-53
2023/05/23 01:25:58;;;;;;;8.37;6.47;;;14.80;99.90;;;;;;5082680;28;20198;-50
2023/05/23 01:28:29;;;;;;;8.90;6.03;;;14.80;99.90;;;;;;5095386;28;20170;-51
2023/05/23 01:30:59;;;;;;;7.30;5.77;;;14.80;99.90;;;;;;5095580;28;20659;-52
2023/05/23 01:33:27;;;;;;;6.30;5.43;;;14.80;99.90;;;;;;5095815;28;20243;-50
2023/05/23 01:35:54;;;;;;;6.50;5.47;;;14.70;99.90;;;;;;5095349;28;20175;-53
2023/05/23 01:38:20;;;;;;;7.93;5.23;;;14.80;99.90;;;;;;5095247;28;20167;-51
2023/05/23 01:40:45;;;;;;;7.87;5.20;;;14.70;99.90;;;;;;5095506;28;20644;-52
2023/05/23 01:43:11;;;;;;;7.00;5.43;;;14.80;99.90;;;;;;5095527;28;20202;-53
2023/05/23 01:45:37;;;;;;;6.70;5.63;;;14.70;99.90;;;;;;5095270;28;20179;-51
2023/05/23 01:48:04;;;;;;;7.27;5.90;;;14.70;99.90;;;;;;5094177;28;20190;-50
2023/05/23 01:50:31;;;;;;;6.60;5.47;;;14.70;99.90;;;;;;5095001;28;20294;-51
2023/05/23 01:52:57;;;;;;;7.17;5.90;;;14.70;99.90;;;;;;5095166;28;20567;-50
2023/05/23 01:55:25;;;;;;;9.33;6.10;;;14.70;99.90;;;;;;5095151;28;20174;-49
2023/05/23 01:57:53;;;;;;;10.87;6.47;;;14.70;99.90;;;;;;5095772;28;20521;-50
2023/05/23 02:00:18;;;;;;;7.93;5.47;;;14.70;99.90;;;;;;5094827;28;20270;-52
2023/05/23 02:02:44;;;;;;;7.17;5.70;;;14.70;99.90;;;;;;5094103;28;20317;-51
2023/05/23 02:05:10;;;;;;;7.27;5.80;;;14.60;99.90;;;;;;5094673;28;20198;-51
2023/05/23 02:07:36;;;;;;;8.13;5.83;;;14.60;99.90;;;;;;5094765;28;20182;-49
2023/05/23 02:10:03;;;;;;;6.57;5.47;;;14.60;99.90;;;;;;5094878;28;20175;-51
2023/05/23 02:12:29;;;;;;;7.47;5.57;;;14.60;99.90;;;;;;5093359;28;20621;-50
2023/05/23 02:14:55;;;;;;;6.77;5.10;;;14.60;99.90;;;;;;5096212;28;20179;-51
2023/05/23 02:17:21;;;;;;;8.77;5.03;;;14.60;99.90;;;;;;5095260;28;20175;-52
2023/05/23 02:19:47;;;;;;;7.33;4.53;;;14.60;99.90;;;;;;5094518;28;20171;-51
2023/05/23 02:22:13;;;;;;;5.47;4.37;;;14.60;99.90;;;;;;5094660;28;20179;-50
2023/05/23 02:24:39;;;;;;;6.83;4.57;;;14.60;99.90;;;;;;5094277;28;20198;-50
2023/05/23 02:27:05;;;;;;;5.73;4.90;;;14.60;99.90;;;;;;5094568;28;20183;-50
2023/05/23 02:29:31;;;;;;;10.13;5.13;;;14.60;99.90;;;;;;5094450;28;20524;-50
2023/05/23 02:31:57;;;;;;;8.53;5.13;;;14.60;99.90;;;;;;5094047;28;20202;-50
2023/05/23 02:34:22;;;;;;;8.33;5.27;;;14.60;99.90;;;;;;5094036;28;20193;-52
2023/05/23 02:36:48;;;;;;;9.50;5.60;;;14.60;99.90;;;;;;5094002;28;20185;-51
2023/05/23 02:39:13;;;;;;;8.47;5.43;;;14.60;99.90;;;;;;5094099;28;20194;-50
2023/05/23 02:41:39;;;;;;;7.73;6.00;;;14.50;99.90;;;;;;5094009;28;20261;-52
2023/05/23 02:44:05;;;;;;;10.10;6.97;;;14.50;99.90;;;;;;5094178;28;20566;-51
2023/05/23 02:46:30;;;;;;;12.03;8.50;;;14.50;99.90;;;;;;5094457;28;20186;-50
2023/05/23 02:48:56;;;;;;;10.80;8.80;;;14.50;99.90;;;;;;5093926;28;20182;-52
2023/05/23 02:51:21;;;;;;;12.00;9.53;;;14.50;99.90;;;;;;5094076;28;20191;-51
2023/05/23 02:53:47;;;;;;;14.20;10.13;;;14.50;99.90;;;;;;5093716;28;20190;-53
2023/05/23 02:56:14;;;;;;;13.03;9.57;;;14.50;99.90;;;;;;5093775;28;20265;-49
2023/05/23 02:58:40;;;;;;;17.07;10.90;;;14.50;99.90;;;;;;5093913;28;20231;-50
2023/05/23 03:01:07;;;;;;;13.30;10.90;;;14.50;99.90;;;;;;5094012;28;20178;-51
2023/05/23 03:03:33;;;;;;;15.60;10.27;;;14.50;99.90;;;;;;5093601;28;20224;-50
2023/05/23 03:05:59;;;;;;;16.27;10.67;;;14.50;99.90;;;;;;5093749;28;20167;-51
2023/05/23 03:08:24;;;;;;;12.17;9.73;;;14.40;99.90;;;;;;5093859;28;20226;-49
2023/05/23 03:10:51;;;;;;;14.70;9.90;;;14.40;99.90;;;;;;5093708;28;20558;-50
2023/05/23 03:13:17;;;;;;;12.83;9.33;;;14.40;99.90;;;;;;5093721;28;20224;-49
2023/05/23 03:15:43;;;;;;;11.07;8.87;;;14.40;99.90;;;;;;5093524;28;20213;-51
2023/05/23 03:18:08;;;;;;;11.03;8.80;;;14.40;99.90;;;;;;5093496;28;20171;-49
2023/05/23 03:20:34;;;;;;;12.67;9.03;;;14.40;99.90;;;;;;5093750;28;20251;-50
2023/05/23 03:23:00;;;;;;;9.73;7.30;;;14.30;99.90;;;;;;5093401;28;20190;-52
2023/05/23 03:25:25;;;;;;;9.53;7.17;;;14.30;99.90;;;;;;5093633;28;20189;-51
2023/05/23 03:27:51;;;;;;;7.77;6.10;;;14.30;99.90;;;;;;5093517;28;20175;-51
2023/05/23 03:30:16;;;;;;;9.17;6.33;;;14.30;99.90;;;;;;5093554;28;20224;-52
2023/05/23 03:32:42;;;;;;;10.23;6.27;;;14.30;99.90;;;;;;5093594;28;20183;-51
2023/05/23 03:35:08;;;;;;;7.70;6.17;;;14.30;99.90;;;;;;5093313;28;20179;-50
2023/05/23 03:37:33;;;;;;;8.93;6.33;;;14.30;99.90;;;;;;5093286;28;20167;-49
2023/05/23 03:39:59;;;;;;;8.60;6.67;;;14.30;99.90;;;;;;5093181;28;20218;-49
2023/05/23 03:42:26;;;;;;;8.77;5.73;;;14.30;99.90;;;;;;5093167;28;20199;-52
2023/05/23 03:44:53;;;;;;;11.97;7.17;;;14.30;99.90;;;;;;5093508;28;20276;-52
2023/05/23 03:47:18;;;;;;;9.90;6.80;;;14.20;99.90;;;;;;5093189;28;20759;-50
2023/05/23 03:49:44;;;;;;;8.20;5.97;;;14.20;99.90;;;;;;5093682;28;20543;-51
2023/05/23 03:52:10;;;;;;;10.67;5.70;;;14.20;99.90;;;;;;5093144;28;20693;-50
2023/05/23 03:54:36;;;;;;;8.37;5.80;;;14.20;99.90;;;;;;5093346;28;20566;-50
2023/05/23 03:57:02;;;;;;;8.10;6.17;;;14.10;99.90;;;;;;5093423;28;20183;-50
2023/05/23 03:59:28;;;;;;;9.17;6.20;;;14.10;99.90;;;;;;5093285;28;20202;-49
2023/05/23 04:01:54;;;;;;;11.30;6.73;;;14.10;99.90;;;;;;5093599;28;20186;-51
2023/05/23 04:04:23;;;;;;;12.67;6.67;;;14.10;99.90;;;;;;5093113;28;20252;-50
2023/05/23 04:06:49;;;;;;;9.40;6.63;;;14.10;99.90;;;;;;5093079;28;20217;-50
2023/05/23 04:09:15;;;;;;;9.27;6.30;;;14.10;99.90;;;;;;5093257;28;20589;-51
2023/05/23 04:11:41;;;;;;;11.73;6.77;;;14.10;99.90;;;;;;5092959;28;20198;-51
2023/05/23 04:14:07;;;;;;;10.10;5.93;;;14.10;99.90;;;;;;5093185;28;20564;-51
2023/05/23 04:16:34;;;;;;;12.93;6.30;;;14.10;99.90;;;;;;5092925;28;20185;-51
2023/05/23 04:19:01;;;;;;;11.63;7.00;;;14.10;99.90;;;;;;5093155;28;20170;-51
2023/05/23 04:21:27;;;;;;;8.03;5.93;;;14.10;99.90;;;;;;5093657;28;20177;-51
2023/05/23 04:23:52;;;;;;;9.47;6.57;;;14.10;99.90;;;;;;5093143;28;20198;-50
2023/05/23 04:26:19;;;;;;;11.90;5.93;;;14.10;99.90;;;;;;5096369;28;20670;-51
2023/05/23 04:28:47;;;;;;;11.43;6.43;;;14.10;99.90;;;;;;5097441;28;20199;-48
2023/05/23 04:31:13;;;;;;;11.43;6.30;;;14.10;99.90;;;;;;5096547;28;20198;-51
2023/05/23 04:33:39;;;;;;;10.67;6.60;;;14.10;99.90;;;;;;5096735;28;20203;-50
2023/05/23 04:36:08;;;;;;;10.23;6.07;;;14.00;99.90;;;;;;5096450;28;20670;-51
2023/05/23 04:38:34;;;;;;;11.67;5.80;;;14.10;99.90;;;;;;5096249;28;20179;-50
2023/05/23 04:41:00;;;;;;;9.20;6.33;;;14.10;99.90;;;;;;5096386;28;20179;-50
2023/05/23 04:43:26;;;;;;;12.03;6.83;;;14.10;99.90;;;;;;5096250;28;20543;-49
2023/05/23 04:45:54;;;;;;;12.33;6.77;;;14.10;99.90;;;;;;5096193;28;20608;-50
2023/05/23 04:48:20;;;;;;;11.13;7.40;;;14.00;99.90;;;;;;5096317;28;20223;-50
2023/05/23 04:50:49;;;;;;;9.63;6.10;;;14.00;99.90;;;;;;5096132;28;20238;-50
2023/05/23 04:53:15;;;;;;;11.73;6.10;;;14.00;99.90;;;;;;5094815;28;20209;-50
2023/05/23 04:55:40;;;;;;;13.37;7.03;;;14.00;99.90;;;;;;5095946;28;20179;-49
2023/05/23 04:58:06;;;;;;;9.37;6.27;;;14.10;99.90;;;;;;5096339;28;20231;-51
2023/05/23 05:00:32;;;;;;;11.83;6.60;;;14.00;99.90;;;;;;5095974;28;20651;-50
2023/05/23 05:02:57;;;;;;;9.53;6.60;;;14.00;99.90;;;;;;5096013;28;20203;-50
2023/05/23 05:05:23;;;;;;;9.97;6.33;;;14.00;99.90;;;;;;5096008;28;20707;-51
2023/05/23 05:07:49;;;;;;;10.70;7.17;;;14.00;99.90;;;;;;5095865;28;20183;-51
2023/05/23 05:10:16;;;;;;;10.23;6.90;;;14.00;99.90;;;;;;5095932;28;20190;-49
2023/05/23 05:12:45;;;;;;;10.40;6.63;;;14.10;99.90;;;;;;5095991;28;20234;-51
2023/05/23 05:15:12;;;;;;;11.70;6.13;;;14.10;99.90;;;;;;5095011;28;20179;-50
2023/05/23 05:17:38;;;;;;;9.00;6.03;;;14.10;99.90;;;;;;5095768;28;20178;-50
2023/05/23 05:20:07;;;;;;;8.43;6.37;;;14.10;99.90;;;;;;5095670;28;20188;-50
2023/05/23 05:22:39;;;;;;;12.33;6.70;;;14.10;99.90;;;;;;5095581;28;20183;-50
2023/05/23 05:25:06;;;;;;;11.00;7.00;;;14.10;99.90;;;;;;5095889;28;20161;-50
2023/05/23 05:27:32;;;;;;;10.13;6.23;;;14.10;99.90;;;;;;5095736;28;20230;-51
2023/05/23 05:30:03;;;;;;;9.17;6.70;;;14.00;99.90;;;;;;5095393;28;20175;-51
2023/05/23 05:32:30;;;;;;;12.00;7.37;;;14.10;99.90;;;;;;5095672;28;20163;-50
2023/05/23 05:34:55;;;;;;;10.97;6.60;;;14.10;99.90;;;;;;5094112;28;20567;-51
2023/05/23 05:37:21;;;;;;;9.63;6.03;;;14.10;99.90;;;;;;5094263;28;20182;-49
2023/05/23 05:39:47;;;;;;;10.87;5.80;;;14.10;99.90;;;;;;5098893;28;20254;-50
2023/05/23 05:42:12;;;;;;;12.63;6.63;;;14.00;99.90;;;;;;5099532;28;20186;-49
2023/05/23 05:44:38;;;;;;;15.93;6.23;;;14.10;99.90;;;;;;5095570;28;20701;-51
2023/05/23 05:47:04;;;;;;;12.63;6.17;;;14.10;99.90;;;;;;5095408;28;20190;-51
2023/05/23 05:49:29;;;;;;;11.67;6.13;;;14.10;99.90;;;;;;5094136;28;20663;-51
2023/05/23 05:51:55;;;;;;;10.27;7.03;;;14.10;99.90;;;;;;5095064;28;20536;-51
2023/05/23 05:54:20;;;;;;;12.50;6.53;;;14.20;99.90;;;;;;5095451;28;20195;-51
2023/05/23 05:56:46;;;;;;;13.43;6.03;;;14.30;99.90;;;;;;5094866;28;20650;-51
2023/05/23 05:59:12;;;;;;;9.13;6.20;;;14.30;99.90;;;;;;5095130;28;20221;-49
2023/05/23 06:01:38;;;;;;;10.47;5.57;;;14.20;99.90;;;;;;5095078;28;20179;-53
2023/05/23 06:04:03;;;;;;;8.77;5.83;;;14.30;99.90;;;;;;5094873;28;20247;-50
2023/05/23 06:06:29;;;;;;;7.63;5.43;;;14.30;99.90;;;;;;5094870;28;20206;-51
2023/05/23 06:08:54;;;;;;;8.83;4.90;;;14.40;99.90;;;;;;5094904;28;20260;-50
2023/05/23 06:11:20;;;;;;;8.23;5.37;;;14.40;99.90;;;;;;5094445;28;20203;-50
2023/05/23 06:13:45;;;;;;;7.83;4.73;;;14.40;99.90;;;;;;5094567;28;20763;-50
2023/05/23 06:16:11;;;;;;;7.57;5.03;;;14.40;99.90;;;;;;5094574;28;20171;-51
2023/05/23 06:18:36;;;;;;;8.77;5.53;;;14.40;99.90;;;;;;5094443;28;20564;-51
2023/05/23 06:21:02;;;;;;;9.87;5.23;;;14.40;99.90;;;;;;5094476;28;20236;-51
2023/05/23 06:23:28;;;;;;;10.13;5.70;;;14.40;99.90;;;;;;5094578;28;20206;-51
2023/05/23 06:25:53;;;;;;;11.83;5.70;;;14.40;99.90;;;;;;5094276;28;20728;-51
2023/05/23 06:28:19;;;;;;;7.83;5.50;;;14.50;99.90;;;;;;5094293;28;20535;-51
2023/05/23 06:30:44;;;;;;;7.40;5.07;;;14.40;99.90;;;;;;5094493;28;20210;-51
2023/05/23 06:33:11;;;;;;;10.20;5.33;;;14.40;99.90;;;;;;5094288;28;20214;-50
2023/05/23 06:35:36;;;;;;;7.60;5.10;;;14.40;99.90;;;;;;5093029;28;20174;-51
2023/05/23 06:38:02;;;;;;;10.30;6.20;;;14.40;99.90;;;;;;5094397;28;20240;-50
2023/05/23 06:40:27;;;;;;;9.37;6.20;;;14.40;99.90;;;;;;5094651;28;20208;-51
2023/05/23 06:42:53;;;;;;;7.20;5.30;;;14.50;99.90;;;;;;5092647;28;20202;-51
2023/05/23 06:45:19;;;;;;;9.17;6.03;;;14.40;99.90;;;;;;5095056;28;20183;-51
2023/05/23 06:47:46;;;;;;;8.53;6.50;;;14.50;99.90;;;;;;5093713;28;20177;-51
2023/05/23 06:50:12;;;;;;;7.27;5.70;;;14.50;99.90;;;;;;5093786;28;20207;-51
2023/05/23 06:52:38;;;;;;;10.00;5.77;;;14.50;99.90;;;;;;5093785;28;20167;-52
2023/05/23 06:55:04;;;;;;;7.30;5.53;;;14.50;99.90;;;;;;5094204;28;20522;-50
2023/05/23 06:57:29;;;;;;;14.83;6.00;;;14.50;99.90;;;;;;5094370;28;20546;-50
2023/05/23 06:59:55;;;;;;;10.03;6.50;;;14.50;99.90;;;;;;5094021;28;20179;-50
2023/05/23 07:02:21;;;;;;;10.10;6.23;;;14.50;99.90;;;;;;5094018;28;20580;-50
2023/05/23 07:04:46;;;;;;;9.40;6.30;;;14.50;99.90;;;;;;5092448;28;20236;-52
2023/05/23 07:07:12;;;;;;;6.93;5.63;;;14.50;99.90;;;;;;5093939;28;20551;-50
2023/05/23 07:09:38;;;;;;;7.63;6.00;;;14.50;99.90;;;;;;5093973;28;20287;-51
2023/05/23 07:12:04;;;;;;;10.47;5.90;;;14.50;99.90;;;;;;5094082;28;20199;-49
2023/05/23 07:14:30;;;;;;;9.97;5.70;;;14.50;99.90;;;;;;5093301;28;20278;-51
2023/05/23 07:16:56;;;;;;;9.70;6.13;;;14.40;99.90;;;;;;5093985;28;20278;-49
2023/05/23 07:19:21;;;;;;;9.93;5.83;;;14.40;99.90;;;;;;5093854;28;20167;-51
2023/05/23 07:21:47;;;;;;;9.00;5.90;;;14.40;99.90;;;;;;5093675;28;20274;-50
2023/05/23 07:24:12;;;;;;;12.03;6.33;;;14.30;99.90;;;;;;5093323;28;20198;-50
2023/05/23 07:26:38;;;;;;;8.90;5.87;;;14.30;99.90;;;;;;5093395;28;20178;-51
2023/05/23 07:29:04;;;;;;;10.03;6.60;;;14.30;99.90;;;;;;5093672;28;20206;-51
2023/05/23 07:31:30;;;;;;;12.77;7.40;;;14.20;99.90;;;;;;5093869;28;20202;-51
2023/05/23 07:33:55;;;;;;;13.50;6.67;;;14.10;99.90;;;;;;5093568;28;20195;-48
2023/05/23 07:36:22;;;;;;;12.03;6.43;;;14.10;99.90;;;;;;5093585;28;20229;-50
2023/05/23 07:38:48;;;;;;;12.97;6.80;;;14.00;99.90;;;;;;5093213;28;20167;-50
2023/05/23 07:41:13;;;;;;;11.40;7.50;;;14.00;99.90;;;;;;5093294;28;20167;-50
2023/05/23 07:43:39;;;;;;;9.60;6.53;;;14.00;99.90;;;;;;5093130;28;20198;-50
2023/05/23 07:46:05;;;;;;;12.40;6.70;;;14.00;99.90;;;;;;5093258;28;20260;-51
2023/05/23 07:48:31;;;;;;;11.73;6.50;;;14.00;99.90;;;;;;5093550;28;20183;-50
2023/05/23 07:50:56;;;;;;;14.77;7.80;;;14.00;99.90;;;;;;5093399;28;20198;-50
2023/05/23 07:53:22;;;;;;;16.33;7.70;;;13.90;99.90;;;;;;5093044;28;20278;-51
2023/05/23 07:55:47;;;;;;;13.97;7.57;;;13.90;99.90;;;;;;5092750;28;20174;-50
2023/05/23 07:58:13;;;;;;;14.60;7.93;;;13.90;99.90;;;;;;5093421;28;20217;-50
2023/05/23 08:00:40;;;;;;;12.17;7.13;;;13.90;99.90;;;;;;5095585;28;20568;-51
2023/05/23 08:03:06;;;;;;;16.33;7.37;;;13.80;99.90;;;;;;5096018;28;20217;-52
2023/05/23 08:05:31;;;;;;;14.07;7.37;;;13.80;99.90;;;;;;5097629;28;20689;-50
2023/05/23 08:07:57;;;;;;;16.20;7.57;;;13.80;99.90;;;;;;5097365;28;20175;-50
2023/05/23 08:10:22;;;;;;;14.23;6.33;;;13.70;99.90;;;;;;5097160;28;20182;-51
2023/05/23 08:12:48;;;;;;;16.00;6.13;;;13.70;99.90;;;;;;5096896;28;20191;-50
2023/05/23 08:15:14;;;;;;;15.17;6.60;;;13.70;99.90;;;;;;5097162;28;20180;-51
2023/05/23 08:17:39;;;;;;;12.63;6.50;;;13.70;99.90;;;;;;5096895;28;20207;-52
2023/05/23 08:20:06;;;;;;;12.97;6.23;;;13.70;99.90;;;;;;5096757;28;20185;-52
2023/05/23 08:22:31;;;;;;;13.17;6.80;;;13.80;99.90;;;;;;5096968;28;20214;-50
2023/05/23 08:24:57;;;;;;;13.43;6.40;;;13.80;99.90;;;;;;5097053;28;20279;-51
2023/05/23 08:27:23;;;;;;;12.40;6.43;;;13.80;99.90;;;;;;5096970;28;20171;-52
2023/05/23 08:29:48;;;;;;;17.07;6.23;;;13.70;99.90;;;;;;5096594;28;20525;-51
2023/05/23 08:32:14;;;;;;;14.27;6.70;;;13.60;99.90;;;;;;5096443;28;20256;-50
2023/05/23 08:34:40;;;;;;;17.67;5.93;;;13.60;99.90;;;;;;5096756;28;20645;-52
2023/05/23 08:37:06;;;;;;;13.17;5.63;;;13.50;99.90;;;;;;5097003;28;20258;-51
2023/05/23 08:39:31;;;;;;;10.90;5.63;;;13.50;99.90;;;;;;5095074;28;20278;-50
2023/05/23 08:41:57;;;;;;;11.33;5.80;;;13.40;99.90;;;;;;5097273;28;20178;-52
2023/05/23 08:44:23;;;;;;;11.67;5.73;;;13.40;99.90;;;;;;5095072;28;20202;-50
2023/05/23 08:46:52;;;;;;;10.53;5.63;;;13.40;99.90;;;;;;5096471;28;20175;-51
2023/05/23 08:49:18;;;;;;;12.03;5.73;;;13.40;99.90;;;;;;5096250;28;20186;-51
2023/05/23 08:51:45;;;;;;;15.90;5.90;;;13.40;99.90;;;;;;5096440;28;20244;-50
2023/05/23 08:54:14;;;;;;;11.17;5.67;;;13.40;99.90;;;;;;5096344;28;20206;-52
2023/05/23 08:56:42;;;;;;;11.17;5.33;;;13.40;99.90;;;;;;5096124;28;20704;-51
2023/05/23 08:59:09;;;;;;;11.30;5.17;;;13.40;99.90;;;;;;5096067;28;20283;-51
2023/05/23 09:01:36;;;;;;;10.80;5.03;;;13.40;99.90;;;;;;5095060;28;20168;-51
2023/05/23 09:04:03;;;;;;;9.03;4.63;;;13.40;99.90;;;;;;5096100;28;20198;-50
2023/05/23 09:06:31;;;;;;;8.27;4.67;;;13.50;99.90;;;;;;5098526;28;20170;-50
2023/05/23 09:08:56;;;;;;;12.17;5.73;;;13.50;99.90;;;;;;5098455;28;20202;-50
2023/05/23 09:11:23;;;;;;;10.77;5.10;;;13.60;99.90;;;;;;5096502;28;20206;-51
2023/05/23 09:13:49;;;;;;;12.57;4.97;;;13.80;99.90;;;;;;5095778;28;20194;-51
2023/05/23 09:16:16;;;;;;;12.93;5.50;;;14.00;99.90;;;;;;5095819;28;20174;-50
2023/05/23 09:18:43;;;;;;;12.00;5.40;;;14.20;99.90;;;;;;5095286;28;20183;-52
2023/05/23 09:21:10;;;;;;;15.63;5.30;;;14.20;99.90;;;;;;5095585;28;20229;-50
2023/05/23 09:23:40;;;;;;;11.97;5.67;;;14.20;99.90;;;;;;5095405;28;20205;-52
2023/05/23 09:26:07;;;;;;;13.33;4.90;;;14.10;99.90;;;;;;5096099;28;20209;-50
2023/05/23 09:28:35;;;;;;;10.87;5.07;;;14.10;99.90;;;;;;5095696;28;20186;-51
2023/05/23 09:31:02;;;;;;;12.57;5.10;;;14.10;99.90;;;;;;5096040;28;20206;-49
2023/05/23 09:33:49;;;;;;;12.37;5.37;;;14.20;99.90;;;;;;5095836;28;20193;-51
2023/05/23 09:36:15;;;;;;;12.73;5.60;;;14.30;99.90;;;;;;5095950;28;20159;-49
2023/05/23 09:38:43;;;;;;;10.83;5.43;;;14.50;99.90;;;;;;5094125;28;20179;-49
2023/05/23 09:41:12;;;;;;;15.90;5.90;;;14.50;99.90;;;;;;5095556;28;20167;-50
2023/05/23 09:43:39;;;;;;;11.13;4.50;;;14.50;99.90;;;;;;5094378;28;20229;-50
2023/05/23 09:46:09;;;;;;;14.40;5.53;;;14.60;99.90;;;;;;5095181;28;20179;-50
2023/05/23 09:48:36;;;;;;;11.50;5.13;;;14.60;99.90;;;;;;5095415;28;20229;-50
2023/05/23 09:51:05;;;;;;;11.23;5.97;;;14.60;99.90;;;;;;5094915;28;20214;-50
2023/05/23 09:53:31;;;;;;;14.10;5.90;;;14.70;99.90;;;;;;5095036;28;20199;-50
2023/05/23 09:56:00;;;;;;;11.83;6.10;;;14.90;99.90;;;;;;5095089;28;20216;-51
2023/05/23 09:58:27;;;;;;;12.47;5.37;;;15.00;99.90;;;;;;5095130;28;20228;-51
2023/05/23 10:00:55;;;;;;;16.63;6.10;;;15.10;99.90;;;;;;5095110;28;20190;-51
2023/05/23 10:03:47;;;;;;;12.80;5.33;;;15.20;99.90;;;;;;5094756;28;20691;-51
2023/05/23 10:06:19;;;;;;;8.87;4.80;;;15.30;99.90;;;;;;5094735;28;20175;-49
2023/05/23 10:08:54;;;;;;;14.43;5.80;;;15.30;99.90;;;;;;5094680;28;20163;-50
2023/05/23 10:11:34;;;;;;;15.37;5.03;;;15.10;99.90;;;;;;5094933;28;20554;-51
2023/05/23 10:14:04;;;;;;;11.37;4.73;;;15.00;99.90;;;;;;5094652;28;20270;-50
2023/05/23 10:16:48;;;;;;;14.23;4.67;;;15.00;99.90;;;;;;5094781;28;20222;-51
2023/05/23 10:19:39;;;;;;;10.13;4.47;;;15.10;99.90;;;;;;5094780;28;20562;-52
2023/05/23 10:22:08;;;;;;;8.07;4.03;;;15.10;99.90;;;;;;5094147;28;20704;-51
2023/05/23 10:24:35;;;;;;;6.83;4.30;;;15.10;99.90;;;;;;5094047;28;20199;-51
2023/05/23 10:27:01;;;;;;;9.17;5.10;;;15.30;99.90;;;;;;5094593;28;20256;-50
2023/05/23 10:29:28;;;;;;;8.30;4.77;;;15.50;99.90;;;;;;5094214;28;20174;-50
2023/05/23 10:31:55;;;;;;;10.83;4.73;;;15.80;99.90;;;;;;5094438;28;20210;-52
2023/05/23 10:34:53;;;;;;;7.97;4.53;;;15.80;99.90;;;;;;5094174;28;20186;-52
2023/05/23 10:37:44;;;;;;;8.10;4.53;;;15.90;99.90;;;;;;5092835;28;20171;-51
2023/05/23 10:40:09;;;;;;;9.70;4.73;;;16.10;99.90;;;;;;5093994;28;20183;-51
2023/05/23 10:42:45;;;;;;;8.20;4.53;;;16.20;99.90;;;;;;5094163;28;20175;-52
2023/05/23 10:45:19;;;;;;;8.03;5.30;;;16.20;99.90;;;;;;5094766;28;20611;-50
2023/05/23 10:47:51;;;;;;;10.87;5.33;;;16.30;99.90;;;;;;5094832;28;20195;-52
2023/05/23 10:50:31;;;;;;;7.77;5.53;;;16.40;99.90;;;;;;5094070;28;20246;-52
2023/05/23 10:53:08;;;;;;;10.73;4.87;;;16.40;99.90;;;;;;5094233;28;20210;-50
2023/05/23 10:55:35;;;;;;;10.07;5.23;;;16.40;99.90;;;;;;5095061;28;20186;-51
2023/05/23 10:58:21;;;;;;;11.27;5.13;;;16.40;99.90;;;;;;5094048;28;20167;-51
2023/05/23 11:01:14;;;;;;;12.33;5.17;;;16.30;99.90;;;;;;5093789;28;20238;-50
2023/05/23 11:03:45;;;;;;;11.60;4.67;;;16.40;99.90;;;;;;5093282;28;20230;-51
2023/05/23 11:06:38;;;;;;;10.73;4.77;;;16.40;99.90;;;;;;5109407;28;20191;-51
2023/05/23 11:09:08;;;;;;;11.30;4.53;;;16.40;99.90;;;;;;5093661;28;20356;-51
2023/05/23 11:11:54;;;;;;;9.27;4.30;;;16.40;99.90;;;;;;5093769;28;20298;-53
2023/05/23 11:14:36;;;;;;;10.93;4.67;;;16.40;99.90;;;;;;5093501;28;20217;-52
2023/05/23 11:17:11;;;;;;;9.07;4.30;;;16.40;99.90;;;;;;5093769;28;20174;-50
2023/05/23 11:19:54;;;;;;;6.60;4.03;;;16.30;99.90;;;;;;5093809;28;20209;-51
2023/05/23 11:22:20;;;;;;;10.30;4.20;;;16.30;99.90;;;;;;5093421;28;20178;-51
2023/05/23 11:24:53;;;;;;;7.23;4.30;;;16.30;99.90;;;;;;5093718;28;20203;-51
2023/05/23 11:27:39;;;;;;;9.37;5.57;;;16.30;99.90;;;;;;5093898;28;20283;-52
2023/05/23 11:30:12;;;;;;;10.10;4.57;;;16.30;99.90;;;;;;5092143;28;20540;-52
2023/05/23 11:32:38;;;;;;;8.07;4.73;;;16.30;99.90;;;;;;5093548;28;20278;-52
2023/05/23 11:35:06;;;;;;;11.17;5.57;;;16.30;99.90;;;;;;5094631;28;20274;-51
2023/05/23 11:37:32;;;;;;;9.90;3.80;;;16.40;99.90;;;;;;5098064;28;20581;-52
2023/05/23 11:39:58;;;;;;;6.53;3.80;;;16.40;99.90;;;;;;5097492;28;20213;-51
2023/05/23 11:42:23;;;;;;;6.73;4.17;;;16.50;99.90;;;;;;5097405;28;20233;-50
2023/05/23 11:44:50;;;;;;;7.17;4.00;;;16.60;99.90;;;;;;5097342;28;20193;-51
2023/05/23 11:47:16;;;;;;;9.90;3.80;;;16.60;99.90;;;;;;5097348;28;20265;-51
2023/05/23 11:49:47;;;;;;;9.60;3.57;;;16.70;99.90;;;;;;5097363;28;20182;-52
2023/05/23 11:52:12;;;;;;;6.50;3.20;;;16.80;99.90;;;;;;5097495;28;20274;-51
2023/05/23 11:54:44;;;;;;;8.47;3.70;;;16.90;99.90;;;;;;5097297;28;20286;-51
2023/05/23 11:57:12;;;;;;;8.97;2.63;;;16.90;99.90;;;;;;5097415;28;20183;-52
2023/05/23 11:59:38;;;;;;;6.30;3.10;;;17.00;99.90;;;;;;5097340;28;20194;-50
2023/05/23 12:02:06;;;;;;;5.70;2.90;;;17.00;99.90;;;;;;5097349;28;20183;-53
2023/05/23 12:04:34;;;;;;;8.13;3.30;;;17.00;99.90;;;;;;5096922;28;20277;-52
2023/05/23 12:07:04;;;;;;;6.77;3.47;;;16.90;99.90;;;;;;5097275;28;20163;-51
2023/05/23 12:09:29;;;;;;;7.17;3.40;;;16.90;99.90;;;;;;5097164;28;20175;-52
2023/05/23 12:11:55;;;;;;;9.03;3.10;;;16.90;99.90;;;;;;5096825;28;20285;-52
2023/05/23 12:14:21;;;;;;;5.43;2.90;;;16.90;99.90;;;;;;5096796;28;20571;-52
2023/05/23 12:16:46;;;;;;;3.63;2.57;;;16.90;99.90;;;;;;5096850;28;20572;-51
2023/05/23 12:19:13;;;;;;;4.93;2.40;;;17.00;99.90;;;;;;5096979;28;20179;-51
2023/05/23 12:21:41;;;;;;;6.50;2.70;;;17.10;99.90;;;;;;5097295;28;20185;-51
2023/05/23 12:24:15;;;;;;;4.97;2.20;;;17.20;99.90;;;;;;5096625;28;20546;-52
2023/05/23 12:26:56;;;;;;;9.83;3.13;;;17.20;99.90;;;;;;5096677;28;20182;-52
2023/05/23 12:29:29;;;;;;;8.57;2.97;;;17.30;99.90;;;;;;5096863;28;20520;-51
2023/05/23 12:31:56;;;;;;;7.70;2.77;;;17.30;99.90;;;;;;5096799;28;20234;-49
2023/05/23 12:34:22;;;;;;;8.83;2.63;;;17.10;99.90;;;;;;5096471;28;20644;-51
2023/05/23 12:36:48;;;;;;;8.67;2.60;;;17.10;99.90;;;;;;5096700;28;20175;-51
2023/05/23 12:39:14;;;;;;;9.57;2.90;;;17.10;99.90;;;;;;5096515;28;20186;-50
2023/05/23 12:41:44;;;;;;;6.63;2.50;;;17.00;99.90;;;;;;5096770;28;20191;-46
2023/05/23 12:44:10;;;;;;;3.77;1.93;;;17.10;99.90;;;;;;5096684;28;20701;-46
2023/05/23 12:46:36;;;;;;;7.57;2.57;;;17.30;99.90;;;;;;5095865;28;20728;-46